createdAt,value
2024-01-11T00:01:53.615Z,-6.58
2024-01-11T00:04:57.086Z,-6.62
2024-01-11T00:08:00.181Z,-6.80
2024-01-11T00:11:03.836Z,-6.60
2024-01-11T00:14:06.720Z,-6.67
2024-01-11T00:17:09.974Z,-6.83
2024-01-11T00:20:13.168Z,-6.72
2024-01-11T00:23:17.064Z,-6.78
2024-01-11T00:26:20.206Z,-6.95
2024-01-11T00:29:23.321Z,-6.86
2024-01-11T00:32:26.272Z,-6.77
2024-01-11T00:35:30.796Z,-6.76
2024-01-11T00:38:34.205Z,-6.74
2024-01-11T00:41:37.726Z,-6.71
2024-01-11T00:44:40.616Z,-6.56
2024-01-11T00:47:44.222Z,-6.59
2024-01-11T00:50:48.449Z,-6.68
2024-01-11T00:53:51.712Z,-6.58
2024-01-11T00:56:54.801Z,-6.91
2024-01-11T00:59:58.100Z,-7.14
2024-01-11T01:03:00.873Z,-7.13
2024-01-11T01:06:04.788Z,-6.99
2024-01-11T01:09:07.892Z,-6.86
2024-01-11T01:12:11.707Z,-6.88
2024-01-11T01:15:18.135Z,-6.90
2024-01-11T01:18:21.442Z,-7.02
2024-01-11T01:21:24.534Z,-6.90
2024-01-11T01:24:27.883Z,-6.86
2024-01-11T01:27:30.845Z,-6.99
2024-01-11T01:30:34.265Z,-6.88
2024-01-11T01:33:37.462Z,-6.96
2024-01-11T01:36:42.717Z,-7.07
2024-01-11T01:39:45.886Z,-7.01
2024-01-11T01:42:50.406Z,-7.04
2024-01-11T01:45:54.057Z,-6.91
2024-01-11T01:48:59.569Z,-6.90
2024-01-11T01:52:04.573Z,-6.91
2024-01-11T01:55:10.344Z,-7.03
2024-01-11T01:58:14.568Z,-7.07
2024-01-11T02:01:19.016Z,-7.43
2024-01-11T02:04:24.271Z,-7.28
2024-01-11T02:07:27.637Z,-7.06
2024-01-11T02:10:34.234Z,-7.23
2024-01-11T02:13:37.497Z,-7.26
2024-01-11T02:16:40.440Z,-7.34
2024-01-11T02:19:43.553Z,-7.23
2024-01-11T02:22:51.890Z,-7.09
2024-01-11T02:25:55.218Z,-7.17
2024-01-11T02:28:59.637Z,-7.30
2024-01-11T02:32:04.289Z,-7.37
2024-01-11T02:35:07.829Z,-7.41
2024-01-11T02:38:11.215Z,-7.32
2024-01-11T02:41:17.337Z,-7.29
2024-01-11T02:44:20.803Z,-7.34
2024-01-11T02:47:23.741Z,-7.38
2024-01-11T02:50:26.997Z,-7.40
2024-01-11T02:53:35.637Z,-7.44
2024-01-11T02:56:39.484Z,-7.66
2024-01-11T02:59:44.741Z,-7.66
2024-01-11T03:02:48.008Z,-7.52
2024-01-11T03:05:50.970Z,-7.79
2024-01-11T03:08:54.375Z,-7.86
2024-01-11T03:11:57.236Z,-7.76
2024-01-11T03:15:01.102Z,-7.57
2024-01-11T03:18:04.525Z,-7.50
2024-01-11T03:21:08.141Z,-7.35
2024-01-11T03:24:11.141Z,-7.33
2024-01-11T03:27:14.441Z,-7.29
2024-01-11T03:30:18.035Z,-7.35
2024-01-11T03:33:21.876Z,-7.40
2024-01-11T03:36:28.812Z,-7.31
2024-01-11T03:39:32.087Z,-7.38
2024-01-11T03:42:35.439Z,-7.40
2024-01-11T03:45:38.683Z,-7.47
2024-01-11T03:48:41.813Z,-7.23
2024-01-11T03:51:47.878Z,-7.55
2024-01-11T03:54:52.102Z,-7.55
2024-01-11T03:57:55.435Z,-7.56
2024-01-11T04:00:58.688Z,-7.55
2024-01-11T04:04:02.598Z,-7.50
2024-01-11T04:07:05.922Z,-7.40
2024-01-11T04:10:10.826Z,-7.49
2024-01-11T04:13:14.972Z,-7.34
2024-01-11T04:16:18.375Z,-7.33
2024-01-11T04:19:23.707Z,-7.68
2024-01-11T04:22:31.214Z,-7.79
2024-01-11T04:25:34.480Z,-7.73
2024-01-11T04:28:39.114Z,-7.66
2024-01-11T04:31:43.749Z,-7.69
2024-01-11T04:34:47.160Z,-7.59
2024-01-11T04:37:50.075Z,-7.57
2024-01-11T04:40:53.145Z,-7.62
2024-01-11T04:43:56.400Z,-7.63
2024-01-11T04:47:02.225Z,-7.60
2024-01-11T04:50:06.277Z,-7.60
2024-01-11T04:53:09.530Z,-7.51
2024-01-11T04:56:17.809Z,-7.65
2024-01-11T04:59:21.315Z,-7.76
2024-01-11T05:02:24.731Z,-7.71
2024-01-11T05:05:28.235Z,-7.70
2024-01-11T05:08:31.840Z,-7.70
2024-01-11T05:11:35.233Z,-7.63
2024-01-11T05:14:39.885Z,-7.74
2024-01-11T05:17:44.889Z,-7.64
2024-01-11T05:20:50.986Z,-7.73
2024-01-11T05:23:54.281Z,-8.00
2024-01-11T05:26:57.268Z,-8.03
2024-01-11T05:30:00.878Z,-8.06
2024-01-11T05:33:05.305Z,-8.04
2024-01-11T05:36:09.410Z,-8.05
2024-01-11T05:39:13.663Z,-8.10
2024-01-11T05:42:21.293Z,-8.13
2024-01-11T05:45:29.197Z,-8.02
2024-01-11T05:48:43.520Z,-7.92
2024-01-11T05:51:46.949Z,-7.87
2024-01-11T05:54:50.314Z,-7.93
2024-01-11T05:57:53.458Z,-7.85
2024-01-11T06:00:57.131Z,-7.91
2024-01-11T06:04:00.580Z,-7.90
2024-01-11T06:07:03.867Z,-7.89
2024-01-11T06:10:07.853Z,-7.86
2024-01-11T06:13:11.188Z,-8.02
2024-01-11T06:16:15.177Z,-7.93
2024-01-11T06:19:18.513Z,-7.90
2024-01-11T06:22:22.479Z,-7.90
2024-01-11T06:25:25.793Z,-7.97
2024-01-11T06:28:29.170Z,-7.95
2024-01-11T06:31:32.292Z,-8.16
2024-01-11T06:34:37.390Z,-8.13
2024-01-11T06:37:40.395Z,-8.14
2024-01-11T06:40:44.976Z,-8.06
2024-01-11T06:43:48.084Z,-8.14
2024-01-11T06:46:52.160Z,-8.16
2024-01-11T06:49:55.319Z,-8.28
2024-01-11T06:52:58.557Z,-8.40
2024-01-11T06:56:02.181Z,-8.49
2024-01-11T06:59:05.681Z,-8.40
2024-01-11T07:02:09.202Z,-8.30
2024-01-11T07:05:13.953Z,-8.28
2024-01-11T07:08:17.051Z,-8.28
2024-01-11T07:11:20.680Z,-8.24
2024-01-11T07:14:24.232Z,-8.14
2024-01-11T07:17:27.802Z,-8.07
2024-01-11T07:20:31.256Z,-7.70
2024-01-11T07:23:35.840Z,-7.08
2024-01-11T07:26:38.650Z,-6.81
2024-01-11T07:29:42.080Z,-7.02
2024-01-11T07:32:45.159Z,-6.56
2024-01-11T07:35:49.537Z,-5.90
2024-01-11T07:38:52.931Z,-5.67
2024-01-11T07:41:56.993Z,-5.67
2024-01-11T07:45:00.385Z,-5.26
2024-01-11T07:48:05.292Z,-4.72
2024-01-11T07:51:09.044Z,-4.29
2024-01-11T07:54:12.513Z,-4.71
2024-01-11T07:57:15.504Z,-4.92
2024-01-11T08:00:18.969Z,-4.87
2024-01-11T08:03:22.258Z,-4.80
2024-01-11T08:06:25.761Z,-4.66
2024-01-11T08:09:29.957Z,-4.78
2024-01-11T08:12:33.064Z,-5.03
2024-01-11T08:15:36.521Z,-4.64
2024-01-11T08:18:39.544Z,-4.43
2024-01-11T08:21:43.562Z,-4.05
2024-01-11T08:24:46.777Z,-3.71
2024-01-11T08:27:50.214Z,-3.27
2024-01-11T08:30:53.586Z,-2.81
2024-01-11T08:33:58.675Z,-2.18
2024-01-11T08:37:01.885Z,-1.55
2024-01-11T08:40:07.266Z,-0.55
2024-01-11T08:43:12.661Z,0.43
2024-01-11T08:46:27.826Z,2.10
2024-01-11T08:49:31.925Z,2.44
2024-01-11T08:52:38.235Z,3.56
2024-01-11T08:55:43.332Z,3.43
2024-01-11T08:58:48.180Z,2.65
2024-01-11T09:01:57.750Z,1.75
2024-01-11T09:05:15.932Z,1.77
2024-01-11T09:08:19.134Z,2.16
2024-01-11T09:11:23.133Z,3.31
2024-01-11T09:14:27.065Z,4.56
2024-01-11T09:17:30.680Z,3.46
2024-01-11T09:20:35.279Z,3.83
2024-01-11T09:23:39.428Z,3.96
2024-01-11T09:26:43.629Z,4.98
2024-01-11T09:29:50.078Z,5.18
2024-01-11T09:32:54.722Z,4.92
2024-01-11T09:35:58.340Z,5.52
2024-01-11T09:39:01.733Z,5.44
2024-01-11T09:42:14.114Z,5.61
2024-01-11T09:45:18.721Z,6.37
2024-01-11T09:48:24.611Z,6.96
2024-01-11T09:51:30.630Z,6.58
2024-01-11T09:54:33.926Z,6.89
2024-01-11T09:57:42.261Z,7.84
2024-01-11T10:00:48.356Z,7.24
2024-01-11T10:03:54.504Z,6.09
2024-01-11T10:06:58.846Z,6.91
2024-01-11T10:10:04.755Z,7.53
2024-01-11T10:13:08.459Z,7.83
2024-01-11T10:16:16.719Z,7.36
2024-01-11T10:19:23.063Z,7.29
2024-01-11T10:22:27.508Z,7.23
2024-01-11T10:25:30.892Z,6.74
2024-01-11T10:28:39.179Z,7.06
2024-01-11T10:31:42.475Z,6.26
2024-01-11T10:34:46.202Z,7.08
2024-01-11T10:37:52.466Z,7.93
2024-01-11T10:40:57.790Z,8.30
2024-01-11T10:44:03.155Z,8.04
2024-01-11T10:47:10.975Z,8.02
2024-01-11T10:50:15.089Z,7.76
2024-01-11T10:53:41.746Z,7.82
2024-01-11T10:56:45.251Z,7.47
2024-01-11T10:59:50.189Z,7.69
2024-01-11T11:02:56.107Z,7.18
2024-01-11T11:06:01.022Z,8.06
2024-01-11T11:09:07.723Z,8.42
2024-01-11T11:12:12.544Z,7.67
2024-01-11T11:15:16.577Z,8.29
2024-01-11T11:18:26.433Z,8.38
2024-01-11T11:21:30.243Z,8.44
2024-01-11T11:24:36.670Z,8.26
2024-01-11T11:27:39.577Z,8.44
2024-01-11T11:30:44.494Z,8.31
2024-01-11T11:33:51.630Z,7.81
2024-01-11T11:36:57.369Z,7.18
2024-01-11T11:40:02.057Z,8.09
2024-01-11T11:43:06.905Z,7.26
2024-01-11T11:46:10.321Z,7.13
2024-01-11T11:49:15.016Z,7.59
2024-01-11T11:52:19.189Z,8.28
2024-01-11T11:55:25.739Z,7.41
2024-01-11T11:58:30.411Z,7.79
2024-01-11T12:01:35.346Z,7.99
2024-01-11T12:04:40.862Z,7.41
2024-01-11T12:07:44.179Z,8.00
2024-01-11T12:14:05.672Z,9.10
2024-01-11T12:17:10.632Z,8.86
2024-01-11T12:20:14.557Z,8.11
2024-01-11T12:23:20.216Z,8.30
2024-01-11T12:26:24.276Z,7.73
2024-01-11T12:29:36.810Z,8.49
2024-01-11T12:32:48.324Z,6.74
2024-01-11T12:35:51.965Z,8.06
2024-01-11T12:38:55.353Z,7.62
2024-01-11T12:41:59.328Z,8.14
2024-01-11T12:45:03.161Z,8.40
2024-01-11T12:48:12.490Z,7.84
2024-01-11T12:51:21.689Z,7.49
2024-01-11T12:54:26.168Z,7.80
2024-01-11T12:57:31.242Z,8.52
2024-01-11T13:00:34.612Z,8.42
2024-01-11T13:03:40.056Z,7.55
2024-01-11T13:06:43.863Z,6.79
2024-01-11T13:09:47.083Z,7.12
2024-01-11T13:12:56.754Z,7.08
2024-01-11T13:16:13.035Z,7.64
2024-01-11T13:19:24.229Z,6.64
2024-01-11T13:22:32.446Z,4.89
2024-01-11T13:25:37.825Z,3.82
2024-01-11T13:28:42.047Z,3.32
2024-01-11T13:31:45.858Z,3.36
2024-01-11T13:34:49.125Z,3.21
2024-01-11T13:37:52.870Z,3.08
2024-01-11T13:40:56.138Z,2.77
2024-01-11T13:44:01.495Z,2.58
2024-01-11T13:47:04.818Z,2.53
2024-01-11T13:50:09.239Z,2.33
2024-01-11T13:53:12.827Z,1.78
2024-01-11T13:56:17.593Z,1.50
2024-01-11T13:59:21.342Z,1.34
2024-01-11T14:02:25.387Z,1.06
2024-01-11T14:05:29.932Z,0.79
2024-01-11T14:08:33.644Z,0.51
2024-01-11T14:11:37.742Z,0.42
2024-01-11T14:14:40.755Z,0.31
2024-01-11T14:17:44.262Z,0.14
2024-01-11T14:20:47.979Z,0.12
2024-01-11T14:23:52.674Z,0.02
2024-01-11T14:26:55.885Z,0.06
2024-01-11T14:29:59.195Z,-0.01
2024-01-11T14:33:03.609Z,-0.03
2024-01-11T14:36:07.935Z,-0.22
2024-01-11T14:39:11.410Z,-0.18
2024-01-11T14:42:14.696Z,-0.35
2024-01-11T14:45:18.608Z,-0.40
2024-01-11T14:48:24.999Z,-0.52
2024-01-11T14:51:32.864Z,-0.58
2024-01-11T14:54:38.324Z,-0.71
2024-01-11T14:57:41.873Z,-0.81
2024-01-11T15:00:45.891Z,-0.84
2024-01-11T15:03:49.483Z,-0.94
2024-01-11T15:06:54.735Z,-1.03
2024-01-11T15:09:58.106Z,-1.13
2024-01-11T15:13:01.516Z,-1.19
2024-01-11T15:16:04.906Z,-1.24
2024-01-11T15:19:08.166Z,-1.27
2024-01-11T15:22:13.823Z,-1.30
2024-01-11T15:25:18.767Z,-1.44
2024-01-11T15:28:23.907Z,-1.40
2024-01-11T15:31:28.466Z,-1.45
2024-01-11T15:34:31.601Z,-1.51
2024-01-11T15:37:37.692Z,-1.58
2024-01-11T15:40:40.651Z,-1.62
2024-01-11T15:43:48.803Z,-1.64
2024-01-11T15:46:51.868Z,-1.61
2024-01-11T15:49:55.410Z,-1.75
2024-01-11T15:52:58.478Z,-1.72
2024-01-11T15:56:02.272Z,-1.71
2024-01-11T15:59:05.308Z,-1.76
2024-01-11T16:02:10.043Z,-1.79
2024-01-11T16:05:13.693Z,-1.80
2024-01-11T16:08:18.475Z,-1.74
2024-01-11T16:11:23.586Z,-1.77
2024-01-11T16:14:26.600Z,-1.65
2024-01-11T16:17:32.228Z,-1.54
2024-01-11T16:20:39.458Z,-1.49
2024-01-11T16:23:43.597Z,-1.43
2024-01-11T16:26:46.751Z,-1.40
2024-01-11T16:29:50.430Z,-1.38
2024-01-11T16:32:53.410Z,-1.38
2024-01-11T16:35:59.278Z,-1.18
2024-01-11T16:39:04.562Z,-1.19
2024-01-11T16:42:13.385Z,-1.25
2024-01-11T16:45:16.643Z,-1.35
2024-01-11T16:48:20.202Z,-1.52
2024-01-11T16:51:23.854Z,-1.52
2024-01-11T16:54:27.233Z,-1.56
2024-01-11T16:57:30.368Z,-1.52
2024-01-11T17:00:33.738Z,-1.41
2024-01-11T17:03:38.150Z,-1.34
2024-01-11T17:06:41.803Z,-1.43
2024-01-11T17:09:44.780Z,-1.46
2024-01-11T17:12:49.299Z,-1.52
2024-01-11T17:15:52.412Z,-1.52
2024-01-11T17:18:55.991Z,-1.53
2024-01-11T17:21:58.980Z,-1.46
2024-01-11T17:25:03.526Z,-1.48
2024-01-11T17:28:06.609Z,-1.50
2024-01-11T17:31:09.846Z,-1.52
2024-01-11T17:34:12.985Z,-1.46
2024-01-11T17:37:22.043Z,-1.35
2024-01-11T17:40:25.091Z,-1.31
2024-01-11T17:43:29.652Z,-1.33
2024-01-11T17:46:33.732Z,-1.40
2024-01-11T17:49:45.867Z,-1.53
2024-01-11T17:52:51.287Z,-1.49
2024-01-11T17:55:55.533Z,-1.43
2024-01-11T17:58:58.299Z,-1.48
2024-01-11T18:02:02.259Z,-1.54
2024-01-11T18:05:06.202Z,-1.47
2024-01-11T18:08:09.437Z,-1.37
2024-01-11T18:11:13.890Z,-1.19
2024-01-11T18:14:18.000Z,-1.11
2024-01-11T18:17:21.599Z,-1.08
2024-01-11T18:20:24.510Z,-0.78
2024-01-11T18:23:28.835Z,-0.83
2024-01-11T18:26:31.794Z,-0.81
2024-01-11T18:29:35.985Z,-0.71
2024-01-11T18:32:39.005Z,-0.67
2024-01-11T18:35:44.798Z,-0.81
2024-01-11T18:38:48.351Z,-1.02
2024-01-11T18:41:54.806Z,-1.00
2024-01-11T18:44:59.397Z,-0.92
2024-01-11T18:48:07.205Z,-0.90
2024-01-11T18:51:10.338Z,-1.00
2024-01-11T18:54:13.946Z,-1.01
2024-01-11T18:57:17.536Z,-1.02
2024-01-11T19:00:21.679Z,-0.89
2024-01-11T19:03:25.653Z,-0.90
2024-01-11T19:06:31.118Z,-0.88
2024-01-11T19:09:34.353Z,-0.73
2024-01-11T19:12:39.565Z,-0.62
2024-01-11T19:15:42.651Z,-0.79
2024-01-11T19:18:46.984Z,-0.83
2024-01-11T19:21:51.195Z,-0.87
2024-01-11T19:24:54.496Z,-0.76
2024-01-11T19:28:01.057Z,-0.72
2024-01-11T19:31:06.899Z,-0.84
2024-01-11T19:34:11.676Z,-0.74
2024-01-11T19:37:19.464Z,-0.83
2024-01-11T19:40:24.547Z,-1.01
2024-01-11T19:43:28.378Z,-0.89
2024-01-11T19:46:35.113Z,-1.32
2024-01-11T19:49:39.181Z,-1.11
2024-01-11T19:52:43.078Z,-1.29
2024-01-11T19:55:49.032Z,-1.41
2024-01-11T19:58:53.848Z,-1.65
2024-01-11T20:01:59.399Z,-1.64
2024-01-11T20:05:06.393Z,-1.60
2024-01-11T20:08:09.790Z,-1.29
2024-01-11T20:11:13.926Z,-1.14
2024-01-11T20:14:19.718Z,-1.09
2024-01-11T20:17:23.775Z,-1.08
2024-01-11T20:20:26.612Z,-1.13
2024-01-11T20:23:30.685Z,-1.29
2024-01-11T20:26:33.971Z,-1.12
2024-01-11T20:29:37.148Z,-1.05
2024-01-11T20:32:40.565Z,-1.14
2024-01-11T20:35:45.043Z,-1.13
2024-01-11T20:38:48.216Z,-0.98
2024-01-11T20:41:51.874Z,-0.91
2024-01-11T20:44:55.033Z,-0.90
2024-01-11T20:47:58.702Z,-0.89
2024-01-11T20:51:02.978Z,-1.02
2024-01-11T20:54:06.331Z,-1.02
2024-01-11T20:57:11.246Z,-0.97
2024-01-11T21:00:17.840Z,-0.91
2024-01-11T21:03:21.518Z,-1.18
2024-01-11T21:06:24.829Z,-1.34
2024-01-11T21:09:27.841Z,-1.29
2024-01-11T21:12:31.043Z,-1.25
2024-01-11T21:15:34.230Z,-1.22
2024-01-11T21:18:37.829Z,-1.70
2024-01-11T21:21:41.666Z,-1.62
2024-01-11T21:24:46.184Z,-1.51
2024-01-11T21:27:50.058Z,-1.58
2024-01-11T21:30:53.410Z,-1.57
2024-01-11T21:33:57.197Z,-1.40
2024-01-11T21:37:02.341Z,-1.35
2024-01-11T21:40:05.779Z,-1.35
2024-01-11T21:43:10.080Z,-1.38
2024-01-11T21:46:13.963Z,-1.46
2024-01-11T21:49:20.370Z,-1.65
2024-01-11T21:52:24.643Z,-1.73
2024-01-11T21:55:27.829Z,-1.67
2024-01-11T21:58:31.295Z,-1.66
2024-01-11T22:01:42.862Z,-1.77
2024-01-11T22:04:46.281Z,-1.82
2024-01-11T22:07:50.461Z,-1.87
2024-01-11T22:10:55.766Z,-1.86
2024-01-11T22:13:59.450Z,-1.89
2024-01-11T22:17:03.101Z,-1.94
2024-01-11T22:20:07.081Z,-1.95
2024-01-11T22:23:10.972Z,-1.98
2024-01-11T22:26:13.919Z,-2.05
2024-01-11T22:29:17.083Z,-2.10
2024-01-11T22:32:20.004Z,-2.03
2024-01-11T22:35:23.458Z,-2.04
2024-01-11T22:38:29.453Z,-2.02
2024-01-11T22:41:39.844Z,-2.08
2024-01-11T22:44:45.378Z,-2.05
2024-01-11T22:47:48.765Z,-2.05
2024-01-11T22:50:51.847Z,-2.07
2024-01-11T22:53:55.240Z,-2.11
2024-01-11T22:56:58.393Z,-2.03
2024-01-11T23:00:04.328Z,-2.17
2024-01-11T23:03:07.326Z,-2.30
2024-01-11T23:06:12.113Z,-2.33
2024-01-11T23:09:15.029Z,-2.57
2024-01-11T23:12:20.390Z,-2.61
2024-01-11T23:15:23.917Z,-2.69
2024-01-11T23:18:27.977Z,-2.73
2024-01-11T23:21:30.912Z,-2.70
2024-01-11T23:24:34.635Z,-2.69
2024-01-11T23:27:37.705Z,-2.65
2024-01-11T23:30:42.136Z,-2.86
2024-01-11T23:33:45.387Z,-2.96
2024-01-11T23:36:48.918Z,-2.93
2024-01-11T23:39:52.012Z,-2.86
2024-01-11T23:42:55.340Z,-2.83
2024-01-11T23:45:58.486Z,-2.77
2024-01-11T23:49:03.131Z,-2.74
2024-01-11T23:52:07.031Z,-2.72
2024-01-11T23:55:10.362Z,-2.71
2024-01-11T23:58:13.524Z,-2.86
